createdAt,value
2023-02-08T00:05:36.992Z,15.73
2023-02-08T00:11:30.496Z,17.93
2023-02-08T00:17:24.876Z,17.90
2023-02-08T00:23:18.610Z,18.43
2023-02-08T00:29:12.037Z,17.53
2023-02-08T00:35:06.751Z,17.17
2023-02-08T00:41:00.159Z,18.30
2023-02-08T00:46:54.021Z,18.87
2023-02-08T00:52:48.428Z,16.47
2023-02-08T00:58:42.686Z,17.10
2023-02-08T01:04:37.339Z,19.73
2023-02-08T01:10:32.330Z,16.70
2023-02-08T01:16:28.213Z,19.20
2023-02-08T01:22:21.680Z,18.83
2023-02-08T01:28:16.057Z,17.83
2023-02-08T01:34:10.806Z,17.90
2023-02-08T01:40:04.269Z,15.90
2023-02-08T01:45:59.609Z,16.13
2023-02-08T01:51:57.572Z,20.23
2023-02-08T01:57:53.915Z,16.23
2023-02-08T02:03:48.939Z,18.13
2023-02-08T02:09:47.106Z,17.70
2023-02-08T02:15:40.861Z,18.07
2023-02-08T02:21:59.055Z,17.10
2023-02-08T02:28:18.395Z,16.67
2023-02-08T02:34:16.441Z,17.70
2023-02-08T02:40:17.180Z,17.40
2023-02-08T02:46:18.345Z,17.00
2023-02-08T02:52:15.843Z,14.87
2023-02-08T02:58:12.105Z,14.90
2023-02-08T03:04:15.263Z,16.77
2023-02-08T03:10:23.121Z,15.20
2023-02-08T03:16:19.654Z,17.13
2023-02-08T03:22:15.923Z,21.37
2023-02-08T03:28:17.022Z,16.50
2023-02-08T03:34:15.207Z,16.83
2023-02-08T03:40:15.082Z,18.97
2023-02-08T03:46:12.886Z,17.07
2023-02-08T03:52:09.750Z,20.07
2023-02-08T03:58:09.556Z,16.40
2023-02-08T04:04:05.064Z,18.03
2023-02-08T04:09:58.484Z,15.93
2023-02-08T04:15:51.952Z,21.13
2023-02-08T04:21:46.257Z,16.67
2023-02-08T04:27:39.724Z,19.13
2023-02-08T04:33:33.164Z,18.50
2023-02-08T04:39:27.674Z,17.53
2023-02-08T04:45:21.058Z,17.00
2023-02-08T04:51:14.058Z,17.60
2023-02-08T04:57:08.856Z,16.80
2023-02-08T05:03:02.335Z,17.93
2023-02-08T05:08:55.331Z,16.03
2023-02-08T05:14:50.154Z,17.13
2023-02-08T05:20:43.568Z,15.77
2023-02-08T05:26:36.964Z,17.53
2023-02-08T05:32:31.794Z,16.17
2023-02-08T05:38:24.744Z,17.60
2023-02-08T05:44:17.801Z,19.30
2023-02-08T05:50:12.221Z,22.63
2023-02-08T05:56:06.866Z,20.10
2023-02-08T06:02:00.279Z,21.90
2023-02-08T06:07:55.114Z,22.37
2023-02-08T06:13:49.046Z,25.27
2023-02-08T06:19:42.472Z,20.90
2023-02-08T06:25:36.805Z,19.23
2023-02-08T06:31:30.005Z,21.77
2023-02-08T06:37:23.104Z,25.10
2023-02-08T06:43:18.715Z,22.10
2023-02-08T06:49:12.478Z,23.10
2023-02-08T06:55:06.557Z,26.23
2023-02-08T07:01:01.556Z,25.03
2023-02-08T07:06:54.603Z,22.80
2023-02-08T07:12:47.686Z,29.50
2023-02-08T07:18:42.493Z,29.70
2023-02-08T07:24:37.012Z,30.40
2023-02-08T07:30:30.621Z,29.93
2023-02-08T07:36:25.033Z,35.30
2023-02-08T07:42:18.676Z,31.20
2023-02-08T07:48:27.087Z,33.73
2023-02-08T07:54:21.613Z,37.90
2023-02-08T08:00:17.104Z,36.80
2023-02-08T08:06:10.213Z,36.70
2023-02-08T08:12:05.664Z,32.27
2023-02-08T08:17:58.667Z,30.77
2023-02-08T08:23:52.126Z,26.53
2023-02-08T08:29:46.462Z,28.53
2023-02-08T08:35:40.540Z,31.43
2023-02-08T08:41:33.634Z,30.73
2023-02-08T08:47:29.019Z,29.37
2023-02-08T08:53:22.481Z,29.10
2023-02-08T08:59:15.974Z,29.83
2023-02-08T09:05:10.406Z,30.67
2023-02-08T09:11:07.434Z,27.97
2023-02-08T09:17:00.668Z,26.23
2023-02-08T09:22:55.440Z,26.80
2023-02-08T09:28:48.519Z,26.33
2023-02-08T09:34:42.003Z,30.27
2023-02-08T09:40:44.040Z,29.10
2023-02-08T09:46:40.685Z,25.40
2023-02-08T09:52:39.111Z,27.90
2023-02-08T09:58:38.532Z,25.13
2023-02-08T10:04:39.151Z,27.60
2023-02-08T10:10:43.177Z,23.60
2023-02-08T10:16:50.614Z,28.37
2023-02-08T10:22:50.655Z,26.17
2023-02-08T10:29:14.448Z,25.03
2023-02-08T10:35:13.408Z,23.20
2023-02-08T10:41:08.248Z,25.20
2023-02-08T10:47:11.662Z,25.27
2023-02-08T10:53:07.550Z,24.93
2023-02-08T10:59:03.105Z,23.47
2023-02-08T11:05:01.253Z,23.20
2023-02-08T11:11:04.023Z,24.30
2023-02-08T11:16:58.685Z,21.93
2023-02-08T11:22:51.945Z,22.33
2023-02-08T11:28:59.368Z,26.43
2023-02-08T11:34:52.772Z,25.43
2023-02-08T11:40:46.548Z,27.00
2023-02-08T11:46:42.754Z,20.27
2023-02-08T11:52:38.568Z,21.87
2023-02-08T11:58:33.128Z,23.20
2023-02-08T12:04:28.065Z,22.87
2023-02-08T12:10:36.186Z,19.70
2023-02-08T12:16:44.577Z,22.53
2023-02-08T12:22:44.559Z,19.77
2023-02-08T12:28:47.794Z,22.70
2023-02-08T12:34:58.647Z,19.37
2023-02-08T12:41:02.544Z,17.73
2023-02-08T12:47:05.694Z,20.07
2023-02-08T12:53:04.335Z,14.83
2023-02-08T12:59:13.191Z,15.63
2023-02-08T13:05:09.132Z,15.80
2023-02-08T13:11:19.082Z,15.93
2023-02-08T13:17:19.779Z,13.20
2023-02-08T13:23:22.058Z,14.37
2023-02-08T13:29:20.378Z,12.73
2023-02-08T13:35:19.275Z,13.90
2023-02-08T13:41:18.564Z,12.50
2023-02-08T13:47:26.152Z,18.20
2023-02-08T13:54:04.852Z,15.93
2023-02-08T14:00:23.908Z,14.27
2023-02-08T14:06:20.960Z,13.10
2023-02-08T14:12:24.532Z,15.90
2023-02-08T14:18:25.752Z,14.70
2023-02-08T14:24:25.272Z,15.70
2023-02-08T14:30:27.667Z,15.97
2023-02-08T14:36:28.455Z,19.17
2023-02-08T14:42:55.440Z,19.33
2023-02-08T14:48:51.162Z,21.07
2023-02-08T14:54:49.703Z,18.47
2023-02-08T15:00:45.906Z,23.90
2023-02-08T15:07:10.488Z,19.70
2023-02-08T15:13:08.746Z,21.00
2023-02-08T15:19:03.423Z,20.43
2023-02-08T15:25:01.467Z,16.80
2023-02-08T15:30:57.979Z,18.77
2023-02-08T15:36:54.035Z,18.17
2023-02-08T15:42:48.473Z,21.50
2023-02-08T15:48:43.903Z,18.60
2023-02-08T15:54:37.416Z,19.80
2023-02-08T16:00:34.473Z,22.70
2023-02-08T16:06:30.910Z,16.10
2023-02-08T16:12:26.249Z,18.13
2023-02-08T16:18:36.667Z,15.33
2023-02-08T16:24:29.672Z,15.70
2023-02-08T16:30:24.603Z,18.90
2023-02-08T16:36:26.896Z,17.30
2023-02-08T16:42:33.892Z,15.83
2023-02-08T16:48:35.025Z,16.10
2023-02-08T16:54:29.829Z,16.80
2023-02-08T17:00:26.886Z,17.93
2023-02-08T17:06:30.244Z,22.07
2023-02-08T17:12:25.682Z,17.17
2023-02-08T17:18:19.174Z,17.60
2023-02-08T17:24:12.537Z,20.63
2023-02-08T17:30:08.145Z,24.50
2023-02-08T17:36:01.568Z,20.33
2023-02-08T17:41:54.538Z,20.53
2023-02-08T17:47:49.056Z,23.23
2023-02-08T17:53:44.174Z,28.10
2023-02-08T17:59:40.099Z,23.63
2023-02-08T18:05:34.421Z,26.60
2023-02-08T18:11:27.812Z,28.23
2023-02-08T18:17:20.768Z,26.87
2023-02-08T18:23:15.841Z,25.20
2023-02-08T18:29:08.886Z,30.03
2023-02-08T18:35:04.034Z,30.23
2023-02-08T18:40:59.181Z,29.73
2023-02-08T18:46:52.164Z,27.73
2023-02-08T18:52:45.520Z,28.73
2023-02-08T18:58:40.060Z,31.57
2023-02-08T19:04:37.067Z,30.60
2023-02-08T19:10:30.287Z,31.17
2023-02-08T19:16:25.523Z,33.30
2023-02-08T19:22:19.049Z,30.27
2023-02-08T19:28:12.015Z,31.80
2023-02-08T19:34:07.528Z,30.60
2023-02-08T19:40:01.005Z,33.27
2023-02-08T19:45:54.398Z,30.67
2023-02-08T19:51:48.861Z,29.77
2023-02-08T19:57:42.379Z,28.30
2023-02-08T20:03:36.011Z,31.27
2023-02-08T20:09:30.935Z,31.17
2023-02-08T20:15:23.894Z,29.53
2023-02-08T20:21:17.530Z,33.07
2023-02-08T20:27:12.348Z,28.67
2023-02-08T20:33:05.735Z,29.90
2023-02-08T20:38:59.780Z,30.23
2023-02-08T20:44:54.405Z,29.70
2023-02-08T20:50:47.351Z,30.87
2023-02-08T20:56:41.068Z,29.07
2023-02-08T21:02:35.900Z,35.83
2023-02-08T21:08:29.330Z,30.93
2023-02-08T21:14:23.558Z,31.90
2023-02-08T21:20:18.482Z,28.40
2023-02-08T21:26:13.325Z,31.97
2023-02-08T21:32:06.998Z,30.17
2023-02-08T21:38:02.225Z,34.60
2023-02-08T21:43:56.302Z,35.57
2023-02-08T21:50:06.578Z,33.20
2023-02-08T21:56:01.259Z,32.30
2023-02-08T22:01:54.720Z,31.73
2023-02-08T22:07:49.550Z,32.97
2023-02-08T22:13:44.554Z,34.10
2023-02-08T22:19:39.406Z,34.43
2023-02-08T22:25:32.460Z,34.60
2023-02-08T22:31:26.883Z,34.30
2023-02-08T22:37:21.526Z,34.00
2023-02-08T22:43:15.500Z,31.93
2023-02-08T22:49:09.850Z,33.47
2023-02-08T22:55:04.479Z,36.60
2023-02-08T23:00:57.871Z,36.50
2023-02-08T23:06:53.075Z,35.00
2023-02-08T23:12:46.540Z,34.33
2023-02-08T23:18:39.543Z,33.70
2023-02-08T23:24:34.521Z,33.47
2023-02-08T23:30:27.518Z,35.30
2023-02-08T23:36:23.363Z,33.80
2023-02-08T23:42:26.248Z,30.53
2023-02-08T23:48:19.650Z,39.27
2023-02-08T23:54:12.749Z,37.97
